sensor_id;sensor_type;location;lat;lon;timestamp;pressure;altitude;pressure_sealevel;temperature;humidity
40940;BME280;26666;50.156;7.700;2023-04-26T00:00:09;100692.78;;;4.67;90.13
40940;BME280;26666;50.156;7.700;2023-04-26T00:05:12;100700.53;;;4.69;90.65
40940;BME280;26666;50.156;7.700;2023-04-26T00:10:13;100698.09;;;4.82;90.02
40940;BME280;26666;50.156;7.700;2023-04-26T00:15:15;100706.88;;;4.65;91.33
40940;BME280;26666;50.156;7.700;2023-04-26T00:20:18;100707.06;;;4.62;90.48
40940;BME280;26666;50.156;7.700;2023-04-26T00:25:20;100708.03;;;4.43;91.02
40940;BME280;26666;50.156;7.700;2023-04-26T00:30:21;100713.53;;;4.54;89.81
40940;BME280;26666;50.156;7.700;2023-04-26T00:35:25;100708.63;;;4.32;90.47
40940;BME280;26666;50.156;7.700;2023-04-26T00:40:26;100710.97;;;4.21;90.83
40940;BME280;26666;50.156;7.700;2023-04-26T00:45:28;100701.13;;;4.26;90.30
40940;BME280;26666;50.156;7.700;2023-04-26T00:50:31;100705.50;;;4.26;90.65
40940;BME280;26666;50.156;7.700;2023-04-26T00:55:33;100701.53;;;4.19;90.10
40940;BME280;26666;50.156;7.700;2023-04-26T01:00:35;100698.19;;;4.32;90.88
40940;BME280;26666;50.156;7.700;2023-04-26T01:05:38;100702.84;;;4.10;90.52
40940;BME280;26666;50.156;7.700;2023-04-26T01:10:40;100696.56;;;3.97;91.23
40940;BME280;26666;50.156;7.700;2023-04-26T01:15:43;100704.03;;;4.20;90.42
40940;BME280;26666;50.156;7.700;2023-04-26T01:20:47;100692.47;;;4.08;91.06
40940;BME280;26666;50.156;7.700;2023-04-26T01:25:50;100705.09;;;4.00;90.76
40940;BME280;26666;50.156;7.700;2023-04-26T01:30:52;100702.78;;;4.11;89.94
40940;BME280;26666;50.156;7.700;2023-04-26T01:35:54;100705.09;;;4.00;90.92
40940;BME280;26666;50.156;7.700;2023-04-26T01:40:57;100700.31;;;4.08;89.87
40940;BME280;26666;50.156;7.700;2023-04-26T01:45:59;100700.66;;;3.85;90.99
40940;BME280;26666;50.156;7.700;2023-04-26T01:51:00;100699.59;;;3.89;90.46
40940;BME280;26666;50.156;7.700;2023-04-26T01:56:04;100701.00;;;3.61;91.69
40940;BME280;26666;50.156;7.700;2023-04-26T02:01:07;100704.47;;;3.62;92.65
40940;BME280;26666;50.156;7.700;2023-04-26T02:06:09;100705.31;;;3.80;91.59
40940;BME280;26666;50.156;7.700;2023-04-26T02:11:12;100695.00;;;3.77;91.82
40940;BME280;26666;50.156;7.700;2023-04-26T02:16:13;100692.16;;;3.64;92.50
40940;BME280;26666;50.156;7.700;2023-04-26T02:21:16;100706.22;;;3.79;92.22
40940;BME280;26666;50.156;7.700;2023-04-26T02:26:19;100698.56;;;3.75;92.45
40940;BME280;26666;50.156;7.700;2023-04-26T02:31:20;100705.69;;;3.89;91.85
40940;BME280;26666;50.156;7.700;2023-04-26T02:36:23;100702.47;;;3.49;92.54
40940;BME280;26666;50.156;7.700;2023-04-26T02:41:26;100705.63;;;3.56;91.92
40940;BME280;26666;50.156;7.700;2023-04-26T02:46:28;100705.25;;;3.29;94.39
40940;BME280;26666;50.156;7.700;2023-04-26T02:51:31;100705.66;;;3.39;93.55
40940;BME280;26666;50.156;7.700;2023-04-26T02:56:34;100704.41;;;3.46;93.28
40940;BME280;26666;50.156;7.700;2023-04-26T03:01:35;100702.84;;;3.07;93.92
40940;BME280;26666;50.156;7.700;2023-04-26T03:06:37;100703.31;;;3.32;92.99
40940;BME280;26666;50.156;7.700;2023-04-26T03:11:40;100702.03;;;3.24;93.92
40940;BME280;26666;50.156;7.700;2023-04-26T03:16:43;100709.22;;;3.19;93.82
40940;BME280;26666;50.156;7.700;2023-04-26T03:21:45;100706.81;;;3.33;92.51
40940;BME280;26666;50.156;7.700;2023-04-26T03:26:48;100700.09;;;3.10;93.85
40940;BME280;26666;50.156;7.700;2023-04-26T03:31:49;100702.94;;;3.40;93.15
40940;BME280;26666;50.156;7.700;2023-04-26T03:36:51;100709.41;;;3.33;92.89
40940;BME280;26666;50.156;7.700;2023-04-26T03:41:54;100700.72;;;3.32;91.76
40940;BME280;26666;50.156;7.700;2023-04-26T03:46:56;100702.72;;;3.45;91.78
40940;BME280;26666;50.156;7.700;2023-04-26T03:51:57;100686.97;;;3.29;92.63
40940;BME280;26666;50.156;7.700;2023-04-26T03:57:00;100684.44;;;3.45;92.55
40940;BME280;26666;50.156;7.700;2023-04-26T04:02:02;100686.88;;;3.48;95.05
40940;BME280;26666;50.156;7.700;2023-04-26T04:07:04;100689.72;;;3.26;93.07
40940;BME280;26666;50.156;7.700;2023-04-26T04:12:07;100705.88;;;3.34;94.19
40940;BME280;26666;50.156;7.700;2023-04-26T04:17:09;100695.91;;;2.88;97.11
40940;BME280;26666;50.156;7.700;2023-04-26T04:22:10;100707.19;;;3.25;96.10
40940;BME280;26666;50.156;7.700;2023-04-26T04:27:13;100703.09;;;3.20;95.01
40940;BME280;26666;50.156;7.700;2023-04-26T04:32:15;100713.91;;;3.12;97.09
40940;BME280;26666;50.156;7.700;2023-04-26T04:37:16;100716.94;;;3.39;96.56
40940;BME280;26666;50.156;7.700;2023-04-26T04:42:19;100732.28;;;3.80;93.55
40940;BME280;26666;50.156;7.700;2023-04-26T04:47:21;100731.59;;;2.88;94.72
40940;BME280;26666;50.156;7.700;2023-04-26T04:52:23;100733.13;;;3.46;92.14
40940;BME280;26666;50.156;7.700;2023-04-26T04:57:26;100740.53;;;3.72;89.75
40940;BME280;26666;50.156;7.700;2023-04-26T05:02:28;100745.41;;;4.29;87.23
40940;BME280;26666;50.156;7.700;2023-04-26T05:07:30;100748.41;;;5.03;84.28
40940;BME280;26666;50.156;7.700;2023-04-26T05:12:33;100739.34;;;5.24;82.18
40940;BME280;26666;50.156;7.700;2023-04-26T05:17:34;100752.25;;;5.43;81.10
40940;BME280;26666;50.156;7.700;2023-04-26T05:22:36;100749.66;;;6.17;81.33
40940;BME280;26666;50.156;7.700;2023-04-26T05:27:39;100746.97;;;5.73;85.14
40940;BME280;26666;50.156;7.700;2023-04-26T05:32:41;100749.63;;;5.43;87.95
40940;BME280;26666;50.156;7.700;2023-04-26T05:37:43;100762.44;;;6.37;83.32
40940;BME280;26666;50.156;7.700;2023-04-26T05:42:46;100762.19;;;8.03;77.13
40940;BME280;26666;50.156;7.700;2023-04-26T05:47:47;100772.13;;;10.18;69.20
40940;BME280;26666;50.156;7.700;2023-04-26T05:52:49;100769.09;;;12.70;61.62
40940;BME280;26666;50.156;7.700;2023-04-26T05:57:52;100769.19;;;13.09;59.47
40940;BME280;26666;50.156;7.700;2023-04-26T06:02:54;100779.28;;;14.78;55.48
40940;BME280;26666;50.156;7.700;2023-04-26T06:07:56;100781.16;;;11.59;59.21
40940;BME280;26666;50.156;7.700;2023-04-26T06:12:59;100769.19;;;18.01;47.39
40940;BME280;26666;50.156;7.700;2023-04-26T06:18:00;100779.47;;;19.16;44.42
40940;BME280;26666;50.156;7.700;2023-04-26T06:23:02;100766.19;;;17.71;43.37
40940;BME280;26666;50.156;7.700;2023-04-26T06:28:05;100768.50;;;18.23;44.07
40940;BME280;26666;50.156;7.700;2023-04-26T06:33:07;100756.28;;;17.06;45.08
40940;BME280;26666;50.156;7.700;2023-04-26T06:38:08;100763.63;;;15.21;48.94
40940;BME280;26666;50.156;7.700;2023-04-26T06:43:11;100761.19;;;14.26;50.56
40940;BME280;26666;50.156;7.700;2023-04-26T06:48:13;100764.50;;;17.37;45.13
40940;BME280;26666;50.156;7.700;2023-04-26T06:53:15;100768.41;;;15.35;48.48
40940;BME280;26666;50.156;7.700;2023-04-26T06:58:18;100768.38;;;21.72;38.82
40940;BME280;26666;50.156;7.700;2023-04-26T07:03:20;100766.56;;;20.48;39.45
40940;BME280;26666;50.156;7.700;2023-04-26T07:08:22;100757.69;;;16.75;44.79
40940;BME280;26666;50.156;7.700;2023-04-26T07:13:25;100762.72;;;16.87;45.08
40940;BME280;26666;50.156;7.700;2023-04-26T07:18:26;100753.44;;;17.07;46.22
40940;BME280;26666;50.156;7.700;2023-04-26T07:23:28;100754.84;;;23.05;37.34
40940;BME280;26666;50.156;7.700;2023-04-26T07:28:31;100750.34;;;22.70;36.69
40940;BME280;26666;50.156;7.700;2023-04-26T07:33:33;100751.50;;;22.13;37.53
40940;BME280;26666;50.156;7.700;2023-04-26T07:38:35;100748.28;;;23.87;36.05
40940;BME280;26666;50.156;7.700;2023-04-26T07:43:38;100743.13;;;25.03;33.68
40940;BME280;26666;50.156;7.700;2023-04-26T07:48:40;100736.84;;;21.87;36.55
40940;BME280;26666;50.156;7.700;2023-04-26T07:53:41;100740.72;;;21.35;37.95
40940;BME280;26666;50.156;7.700;2023-04-26T07:58:44;100744.22;;;21.50;37.24
40940;BME280;26666;50.156;7.700;2023-04-26T08:03:46;100739.56;;;20.35;38.67
40940;BME280;26666;50.156;7.700;2023-04-26T08:08:49;100737.13;;;17.68;42.80
40940;BME280;26666;50.156;7.700;2023-04-26T08:13:52;100739.97;;;15.17;48.06
40940;BME280;26666;50.156;7.700;2023-04-26T08:18:54;100744.75;;;15.50;46.79
40940;BME280;26666;50.156;7.700;2023-04-26T08:23:56;100739.63;;;15.56;46.24
40940;BME280;26666;50.156;7.700;2023-04-26T08:28:59;100735.25;;;16.52;44.96
40940;BME280;26666;50.156;7.700;2023-04-26T08:34:01;100729.16;;;19.72;39.30
40940;BME280;26666;50.156;7.700;2023-04-26T08:39:03;100737.97;;;15.19;46.50
40940;BME280;26666;50.156;7.700;2023-04-26T08:44:07;100735.94;;;14.40;48.73
40940;BME280;26666;50.156;7.700;2023-04-26T08:49:14;100734.06;;;15.24;46.38
40940;BME280;26666;50.156;7.700;2023-04-26T08:54:19;100737.72;;;14.77;45.91
40940;BME280;26666;50.156;7.700;2023-04-26T08:59:22;100724.81;;;14.82;44.59
40940;BME280;26666;50.156;7.700;2023-04-26T09:04:24;100713.59;;;15.86;43.88
40940;BME280;26666;50.156;7.700;2023-04-26T09:09:26;100716.00;;;14.54;44.72
40940;BME280;26666;50.156;7.700;2023-04-26T09:14:31;100708.38;;;14.04;47.79
40940;BME280;26666;50.156;7.700;2023-04-26T09:19:37;100697.09;;;13.92;47.30
40940;BME280;26666;50.156;7.700;2023-04-26T09:24:46;100698.00;;;13.53;46.72
40940;BME280;26666;50.156;7.700;2023-04-26T09:30:03;100687.66;;;13.11;46.67
40940;BME280;26666;50.156;7.700;2023-04-26T09:35:05;100696.72;;;13.57;47.03
40940;BME280;26666;50.156;7.700;2023-04-26T09:40:17;100695.91;;;14.04;45.23
40940;BME280;26666;50.156;7.700;2023-04-26T09:45:20;100693.69;;;13.13;47.15
40940;BME280;26666;50.156;7.700;2023-04-26T09:50:26;100697.25;;;12.73;47.94
40940;BME280;26666;50.156;7.700;2023-04-26T09:55:29;100683.59;;;13.07;48.15
40940;BME280;26666;50.156;7.700;2023-04-26T10:00:40;100686.16;;;12.39;47.73
40940;BME280;26666;50.156;7.700;2023-04-26T10:05:42;100691.25;;;12.21;48.28
40940;BME280;26666;50.156;7.700;2023-04-26T10:10:43;100677.72;;;12.84;48.76
40940;BME280;26666;50.156;7.700;2023-04-26T10:15:47;100672.59;;;12.92;47.08
40940;BME280;26666;50.156;7.700;2023-04-26T10:20:51;100671.88;;;12.80;48.03
40940;BME280;26666;50.156;7.700;2023-04-26T10:25:55;100659.72;;;13.07;47.14
40940;BME280;26666;50.156;7.700;2023-04-26T10:30:58;100658.91;;;13.36;46.93
40940;BME280;26666;50.156;7.700;2023-04-26T10:36:06;100660.94;;;14.09;47.05
40940;BME280;26666;50.156;7.700;2023-04-26T10:41:28;100648.03;;;13.00;47.13
40940;BME280;26666;50.156;7.700;2023-04-26T10:46:39;100644.09;;;12.85;45.47
40940;BME280;26666;50.156;7.700;2023-04-26T10:52:09;100641.03;;;12.99;45.07
40940;BME280;26666;50.156;7.700;2023-04-26T10:57:11;100635.78;;;12.29;46.26
40940;BME280;26666;50.156;7.700;2023-04-26T11:02:14;100645.34;;;12.71;47.75
40940;BME280;26666;50.156;7.700;2023-04-26T11:07:35;100631.19;;;12.31;48.54
40940;BME280;26666;50.156;7.700;2023-04-26T11:12:40;100627.44;;;12.34;47.15
40940;BME280;26666;50.156;7.700;2023-04-26T11:17:43;100627.84;;;12.39;46.42
40940;BME280;26666;50.156;7.700;2023-04-26T11:22:46;100611.44;;;13.13;46.65
40940;BME280;26666;50.156;7.700;2023-04-26T11:27:48;100611.03;;;12.69;45.61
40940;BME280;26666;50.156;7.700;2023-04-26T11:32:51;100613.88;;;12.27;47.17
40940;BME280;26666;50.156;7.700;2023-04-26T11:37:53;100596.06;;;13.17;44.48
40940;BME280;26666;50.156;7.700;2023-04-26T11:42:58;100591.69;;;13.55;44.56
40940;BME280;26666;50.156;7.700;2023-04-26T11:48:02;100592.41;;;13.37;44.67
40940;BME280;26666;50.156;7.700;2023-04-26T11:53:06;100588.69;;;13.68;44.27
40940;BME280;26666;50.156;7.700;2023-04-26T11:58:09;100593.91;;;13.50;45.59
40940;BME280;26666;50.156;7.700;2023-04-26T12:03:13;100597.03;;;13.26;45.95
40940;BME280;26666;50.156;7.700;2023-04-26T12:08:15;100591.44;;;13.38;46.23
40940;BME280;26666;50.156;7.700;2023-04-26T12:13:18;100582.59;;;13.85;43.59
40940;BME280;26666;50.156;7.700;2023-04-26T12:18:21;100592.38;;;13.57;44.73
40940;BME280;26666;50.156;7.700;2023-04-26T12:23:22;100587.25;;;13.26;45.43
40940;BME280;26666;50.156;7.700;2023-04-26T12:28:24;100585.59;;;13.35;45.13
40940;BME280;26666;50.156;7.700;2023-04-26T12:33:27;100582.66;;;13.18;44.69
40940;BME280;26666;50.156;7.700;2023-04-26T12:38:29;100577.06;;;13.41;45.57
40940;BME280;26666;50.156;7.700;2023-04-26T12:43:31;100577.88;;;13.41;44.79
40940;BME280;26666;50.156;7.700;2023-04-26T12:48:34;100574.69;;;13.18;46.22
40940;BME280;26666;50.156;7.700;2023-04-26T12:53:36;100577.06;;;13.31;44.67
40940;BME280;26666;50.156;7.700;2023-04-26T12:58:37;100579.34;;;12.87;44.46
40940;BME280;26666;50.156;7.700;2023-04-26T13:03:40;100578.34;;;13.08;48.86
40940;BME280;26666;50.156;7.700;2023-04-26T13:08:42;100589.66;;;13.19;46.62
40940;BME280;26666;50.156;7.700;2023-04-26T13:13:44;100589.25;;;12.56;45.29
40940;BME280;26666;50.156;7.700;2023-04-26T13:18:47;100586.44;;;13.06;47.24
40940;BME280;26666;50.156;7.700;2023-04-26T13:23:49;100575.09;;;13.24;48.80
40940;BME280;26666;50.156;7.700;2023-04-26T13:28:50;100574.28;;;13.03;46.13
40940;BME280;26666;50.156;7.700;2023-04-26T13:33:53;100575.84;;;13.06;46.10
40940;BME280;26666;50.156;7.700;2023-04-26T13:38:55;100569.88;;;12.65;45.95
40940;BME280;26666;50.156;7.700;2023-04-26T13:43:57;100570.22;;;13.09;47.27
40940;BME280;26666;50.156;7.700;2023-04-26T13:49:00;100566.75;;;12.99;45.19
40940;BME280;26666;50.156;7.700;2023-04-26T13:54:02;100559.53;;;12.81;46.31
40940;BME280;26666;50.156;7.700;2023-04-26T13:59:04;100554.53;;;12.78;47.82
40940;BME280;26666;50.156;7.700;2023-04-26T14:04:07;100543.47;;;12.93;44.97
40940;BME280;26666;50.156;7.700;2023-04-26T14:09:12;100539.28;;;13.00;45.57
40940;BME280;26666;50.156;7.700;2023-04-26T14:14:13;100543.03;;;12.88;45.22
40940;BME280;26666;50.156;7.700;2023-04-26T14:19:17;100534.41;;;12.76;45.02
40940;BME280;26666;50.156;7.700;2023-04-26T14:24:18;100530.34;;;12.72;45.23
40940;BME280;26666;50.156;7.700;2023-04-26T14:29:20;100523.25;;;12.72;45.11
40940;BME280;26666;50.156;7.700;2023-04-26T14:34:23;100521.84;;;12.78;48.45
40940;BME280;26666;50.156;7.700;2023-04-26T14:39:25;100526.47;;;12.66;45.72
40940;BME280;26666;50.156;7.700;2023-04-26T14:44:26;100529.41;;;12.34;45.89
40940;BME280;26666;50.156;7.700;2023-04-26T14:49:30;100530.25;;;12.54;44.65
40940;BME280;26666;50.156;7.700;2023-04-26T14:54:36;100519.75;;;12.62;46.15
40940;BME280;26666;50.156;7.700;2023-04-26T14:59:38;100525.16;;;12.12;45.42
40940;BME280;26666;50.156;7.700;2023-04-26T15:04:41;100513.50;;;12.24;44.91
40940;BME280;26666;50.156;7.700;2023-04-26T15:09:43;100507.50;;;12.41;47.62
40940;BME280;26666;50.156;7.700;2023-04-26T15:14:44;100507.66;;;12.30;45.37
40940;BME280;26666;50.156;7.700;2023-04-26T15:19:47;100502.03;;;12.33;47.72
40940;BME280;26666;50.156;7.700;2023-04-26T15:24:49;100508.03;;;12.45;47.43
40940;BME280;26666;50.156;7.700;2023-04-26T15:29:52;100498.00;;;12.19;47.54
40940;BME280;26666;50.156;7.700;2023-04-26T15:34:55;100502.56;;;11.98;46.02
40940;BME280;26666;50.156;7.700;2023-04-26T15:39:57;100493.00;;;12.16;45.46
40940;BME280;26666;50.156;7.700;2023-04-26T15:44:58;100491.88;;;12.09;45.10
40940;BME280;26666;50.156;7.700;2023-04-26T15:50:02;100492.56;;;12.21;47.25
40940;BME280;26666;50.156;7.700;2023-04-26T15:55:05;100488.66;;;12.25;49.51
40940;BME280;26666;50.156;7.700;2023-04-26T16:00:08;100485.88;;;12.07;45.80
40940;BME280;26666;50.156;7.700;2023-04-26T16:05:11;100483.09;;;12.18;48.22
40940;BME280;26666;50.156;7.700;2023-04-26T16:10:13;100479.44;;;12.19;46.61
40940;BME280;26666;50.156;7.700;2023-04-26T16:15:14;100473.47;;;12.08;49.46
40940;BME280;26666;50.156;7.700;2023-04-26T16:20:17;100482.78;;;12.12;54.39
40940;BME280;26666;50.156;7.700;2023-04-26T16:25:19;100474.28;;;11.98;53.91
40940;BME280;26666;50.156;7.700;2023-04-26T16:30:21;100473.56;;;11.96;55.68
40940;BME280;26666;50.156;7.700;2023-04-26T16:35:24;100468.75;;;11.71;58.21
40940;BME280;26666;50.156;7.700;2023-04-26T16:40:26;100467.38;;;11.67;58.71
40940;BME280;26666;50.156;7.700;2023-04-26T16:45:28;100472.06;;;11.53;59.77
40940;BME280;26666;50.156;7.700;2023-04-26T16:50:31;100475.81;;;11.51;61.17
40940;BME280;26666;50.156;7.700;2023-04-26T16:55:32;100471.03;;;11.35;63.81
40940;BME280;26666;50.156;7.700;2023-04-26T17:00:34;100468.56;;;11.43;64.00
40940;BME280;26666;50.156;7.700;2023-04-26T17:05:38;100474.41;;;11.47;62.44
40940;BME280;26666;50.156;7.700;2023-04-26T17:10:40;100478.69;;;11.38;61.93
40940;BME280;26666;50.156;7.700;2023-04-26T17:15:42;100483.72;;;11.41;62.86
40940;BME280;26666;50.156;7.700;2023-04-26T17:20:45;100483.22;;;11.57;58.62
40940;BME280;26666;50.156;7.700;2023-04-26T17:25:47;100479.41;;;11.50;62.36
40940;BME280;26666;50.156;7.700;2023-04-26T17:30:48;100487.53;;;11.48;59.69
40940;BME280;26666;50.156;7.700;2023-04-26T17:35:52;100501.41;;;11.40;59.78
40940;BME280;26666;50.156;7.700;2023-04-26T17:40:53;100508.28;;;11.22;61.96
40940;BME280;26666;50.156;7.700;2023-04-26T17:45:55;100503.25;;;11.19;63.68
40940;BME280;26666;50.156;7.700;2023-04-26T17:50:58;100509.69;;;11.05;62.26
40940;BME280;26666;50.156;7.700;2023-04-26T17:56:00;100511.69;;;10.82;63.41
40940;BME280;26666;50.156;7.700;2023-04-26T18:01:01;100517.53;;;10.64;64.52
40940;BME280;26666;50.156;7.700;2023-04-26T18:06:06;100523.50;;;10.45;66.55
40940;BME280;26666;50.156;7.700;2023-04-26T18:11:08;100531.34;;;10.24;66.35
40940;BME280;26666;50.156;7.700;2023-04-26T18:16:09;100539.75;;;10.18;68.56
40940;BME280;26666;50.156;7.700;2023-04-26T18:21:12;100542.41;;;10.07;69.75
40940;BME280;26666;50.156;7.700;2023-04-26T18:26:14;100542.91;;;10.01;70.65
40940;BME280;26666;50.156;7.700;2023-04-26T18:31:15;100552.03;;;9.97;71.69
40940;BME280;26666;50.156;7.700;2023-04-26T18:36:19;100549.78;;;9.81;72.87
40940;BME280;26666;50.156;7.700;2023-04-26T18:41:20;100565.50;;;9.60;73.63
40940;BME280;26666;50.156;7.700;2023-04-26T18:46:22;100575.22;;;9.59;74.25
40940;BME280;26666;50.156;7.700;2023-04-26T18:51:25;100581.91;;;9.41;75.68
40940;BME280;26666;50.156;7.700;2023-04-26T18:56:27;100585.28;;;9.43;75.39
40940;BME280;26666;50.156;7.700;2023-04-26T19:01:29;100581.75;;;9.20;76.86
40940;BME280;26666;50.156;7.700;2023-04-26T19:06:32;100585.22;;;9.09;77.59
40940;BME280;26666;50.156;7.700;2023-04-26T19:11:34;100603.63;;;8.98;77.88
40940;BME280;26666;50.156;7.700;2023-04-26T19:16:35;100608.63;;;8.90;77.30
40940;BME280;26666;50.156;7.700;2023-04-26T19:21:42;100605.97;;;8.78;77.24
40940;BME280;26666;50.156;7.700;2023-04-26T19:26:44;100618.41;;;8.76;76.77
40940;BME280;26666;50.156;7.700;2023-04-26T19:31:45;100613.63;;;8.57;76.44
40940;BME280;26666;50.156;7.700;2023-04-26T19:36:48;100627.97;;;8.53;77.92
40940;BME280;26666;50.156;7.700;2023-04-26T19:41:50;100632.75;;;8.35;77.20
40940;BME280;26666;50.156;7.700;2023-04-26T19:46:52;100631.31;;;8.31;77.51
40940;BME280;26666;50.156;7.700;2023-04-26T19:51:55;100625.91;;;8.33;77.35
40940;BME280;26666;50.156;7.700;2023-04-26T19:56:56;100625.97;;;8.20;77.92
40940;BME280;26666;50.156;7.700;2023-04-26T20:01:58;100639.75;;;8.23;77.87
40940;BME280;26666;50.156;7.700;2023-04-26T20:07:01;100642.41;;;8.10;78.32
40940;BME280;26666;50.156;7.700;2023-04-26T20:12:03;100653.16;;;7.95;78.97
40940;BME280;26666;50.156;7.700;2023-04-26T20:17:05;100653.34;;;8.04;79.35
40940;BME280;26666;50.156;7.700;2023-04-26T20:22:08;100650.72;;;7.92;80.24
40940;BME280;26666;50.156;7.700;2023-04-26T20:27:10;100652.19;;;7.96;81.92
40940;BME280;26666;50.156;7.700;2023-04-26T20:32:11;100654.84;;;7.70;81.28
40940;BME280;26666;50.156;7.700;2023-04-26T20:37:14;100660.97;;;7.70;80.76
40940;BME280;26666;50.156;7.700;2023-04-26T20:42:16;100662.94;;;7.54;79.99
40940;BME280;26666;50.156;7.700;2023-04-26T20:47:18;100659.69;;;7.50;79.54
40940;BME280;26666;50.156;7.700;2023-04-26T20:52:21;100664.94;;;7.38;79.93
40940;BME280;26666;50.156;7.700;2023-04-26T20:57:23;100666.06;;;7.21;78.22
40940;BME280;26666;50.156;7.700;2023-04-26T21:02:24;100677.75;;;7.02;78.70
40940;BME280;26666;50.156;7.700;2023-04-26T21:07:28;100667.00;;;6.80;79.62
40940;BME280;26666;50.156;7.700;2023-04-26T21:12:29;100668.13;;;7.03;79.53
40940;BME280;26666;50.156;7.700;2023-04-26T21:17:31;100667.25;;;7.02;79.37
40940;BME280;26666;50.156;7.700;2023-04-26T21:22:34;100669.88;;;6.89;80.02
40940;BME280;26666;50.156;7.700;2023-04-26T21:27:36;100678.09;;;6.70;79.63
40940;BME280;26666;50.156;7.700;2023-04-26T21:32:37;100672.19;;;6.67;80.38
40940;BME280;26666;50.156;7.700;2023-04-26T21:37:40;100675.28;;;6.59;81.05
40940;BME280;26666;50.156;7.700;2023-04-26T21:42:42;100681.25;;;6.76;82.35
40940;BME280;26666;50.156;7.700;2023-04-26T21:47:54;100683.00;;;6.89;82.71
40940;BME280;26666;50.156;7.700;2023-04-26T21:52:57;100679.81;;;6.84;83.36
40940;BME280;26666;50.156;7.700;2023-04-26T21:57:59;100673.28;;;7.04;82.36
40940;BME280;26666;50.156;7.700;2023-04-26T22:03:01;100685.94;;;6.85;83.33
40940;BME280;26666;50.156;7.700;2023-04-26T22:08:04;100690.97;;;7.15;82.47
40940;BME280;26666;50.156;7.700;2023-04-26T22:13:06;100696.94;;;7.17;82.49
40940;BME280;26666;50.156;7.700;2023-04-26T22:18:07;100710.31;;;7.14;83.75
40940;BME280;26666;50.156;7.700;2023-04-26T22:23:11;100721.25;;;7.21;82.86
40940;BME280;26666;50.156;7.700;2023-04-26T22:28:14;100725.28;;;6.99;84.63
40940;BME280;26666;50.156;7.700;2023-04-26T22:33:15;100731.13;;;6.90;85.16
40940;BME280;26666;50.156;7.700;2023-04-26T22:38:18;100729.28;;;7.05;84.31
40940;BME280;26666;50.156;7.700;2023-04-26T22:43:21;100727.41;;;6.65;85.79
40940;BME280;26666;50.156;7.700;2023-04-26T22:48:23;100729.94;;;6.67;86.29
40940;BME280;26666;50.156;7.700;2023-04-26T22:53:26;100729.41;;;6.62;86.18
40940;BME280;26666;50.156;7.700;2023-04-26T22:58:27;100721.84;;;6.84;85.50
40940;BME280;26666;50.156;7.700;2023-04-26T23:03:29;100729.22;;;6.36;85.74
40940;BME280;26666;50.156;7.700;2023-04-26T23:08:32;100717.59;;;6.55;87.42
40940;BME280;26666;50.156;7.700;2023-04-26T23:13:34;100719.97;;;6.45;85.64
40940;BME280;26666;50.156;7.700;2023-04-26T23:18:36;100713.41;;;6.23;85.16
40940;BME280;26666;50.156;7.700;2023-04-26T23:23:39;100718.28;;;6.01;85.76
40940;BME280;26666;50.156;7.700;2023-04-26T23:28:41;100709.91;;;5.94;87.24
40940;BME280;26666;50.156;7.700;2023-04-26T23:33:42;100719.47;;;5.81;86.39
40940;BME280;26666;50.156;7.700;2023-04-26T23:38:45;100713.66;;;5.90;85.98
40940;BME280;26666;50.156;7.700;2023-04-26T23:43:47;100717.66;;;5.67;87.53
40940;BME280;26666;50.156;7.700;2023-04-26T23:48:49;100726.34;;;5.53;85.71
40940;BME280;26666;50.156;7.700;2023-04-26T23:53:52;100719.31;;;5.53;84.27
40940;BME280;26666;50.156;7.700;2023-04-26T23:58:54;100713.16;;;5.55;83.74
